sensor_id;sensor_type;location;lat;lon;timestamp;P1;durP1;ratioP1;P2;durP2;ratioP2
74849;SDS011;63397;47.480;19.238;2023-02-28T00:01:12;1.23;;;0.40;;
74849;SDS011;63397;47.480;19.238;2023-02-28T00:04:15;1.00;;;0.75;;
74849;SDS011;63397;47.480;19.238;2023-02-28T00:07:17;1.95;;;0.93;;
74849;SDS011;63397;47.480;19.238;2023-02-28T00:10:21;1.07;;;0.43;;
74849;SDS011;63397;47.480;19.238;2023-02-28T00:13:24;1.87;;;0.67;;
74849;SDS011;63397;47.480;19.238;2023-02-28T00:16:27;0.55;;;0.45;;
74849;SDS011;63397;47.480;19.238;2023-02-28T00:19:29;6.90;;;2.15;;
74849;SDS011;63397;47.480;19.238;2023-02-28T00:22:31;2.80;;;1.20;;
74849;SDS011;63397;47.480;19.238;2023-02-28T00:25:33;2.83;;;1.13;;
74849;SDS011;63397;47.480;19.238;2023-02-28T00:28:35;2.13;;;1.23;;
74849;SDS011;63397;47.480;19.238;2023-02-28T00:31:38;3.65;;;1.25;;
74849;SDS011;63397;47.480;19.238;2023-02-28T00:34:40;2.55;;;1.40;;
74849;SDS011;63397;47.480;19.238;2023-02-28T00:37:43;2.55;;;0.82;;
74849;SDS011;63397;47.480;19.238;2023-02-28T00:40:45;0.83;;;0.53;;
74849;SDS011;63397;47.480;19.238;2023-02-28T00:43:47;1.47;;;0.77;;
74849;SDS011;63397;47.480;19.238;2023-02-28T00:46:49;1.95;;;1.08;;
74849;SDS011;63397;47.480;19.238;2023-02-28T00:49:52;1.50;;;0.70;;
74849;SDS011;63397;47.480;19.238;2023-02-28T00:52:54;1.20;;;0.52;;
74849;SDS011;63397;47.480;19.238;2023-02-28T00:55:56;4.00;;;0.83;;
74849;SDS011;63397;47.480;19.238;2023-02-28T00:59:00;1.03;;;0.63;;
74849;SDS011;63397;47.480;19.238;2023-02-28T01:02:02;1.52;;;0.70;;
74849;SDS011;63397;47.480;19.238;2023-02-28T01:05:04;2.28;;;1.42;;
74849;SDS011;63397;47.480;19.238;2023-02-28T01:08:07;2.47;;;0.52;;
74849;SDS011;63397;47.480;19.238;2023-02-28T01:11:10;3.87;;;1.07;;
74849;SDS011;63397;47.480;19.238;2023-02-28T01:14:15;1.73;;;0.90;;
74849;SDS011;63397;47.480;19.238;2023-02-28T01:17:20;1.92;;;1.00;;
74849;SDS011;63397;47.480;19.238;2023-02-28T01:20:22;2.20;;;0.77;;
74849;SDS011;63397;47.480;19.238;2023-02-28T01:23:24;2.60;;;1.27;;
74849;SDS011;63397;47.480;19.238;2023-02-28T01:26:26;2.30;;;1.20;;
74849;SDS011;63397;47.480;19.238;2023-02-28T01:29:28;1.73;;;1.33;;
74849;SDS011;63397;47.480;19.238;2023-02-28T01:32:30;2.42;;;1.08;;
74849;SDS011;63397;47.480;19.238;2023-02-28T01:35:33;1.77;;;0.93;;
74849;SDS011;63397;47.480;19.238;2023-02-28T01:38:36;1.05;;;0.82;;
74849;SDS011;63397;47.480;19.238;2023-02-28T01:41:38;2.00;;;1.13;;
74849;SDS011;63397;47.480;19.238;2023-02-28T01:48:04;3.35;;;1.35;;
74849;SDS011;63397;47.480;19.238;2023-02-28T01:51:12;1.98;;;0.90;;
74849;SDS011;63397;47.480;19.238;2023-02-28T01:54:18;3.08;;;0.98;;
74849;SDS011;63397;47.480;19.238;2023-02-28T01:57:24;1.13;;;0.77;;
74849;SDS011;63397;47.480;19.238;2023-02-28T02:00:28;3.90;;;0.80;;
74849;SDS011;63397;47.480;19.238;2023-02-28T02:03:31;1.30;;;0.73;;
74849;SDS011;63397;47.480;19.238;2023-02-28T02:06:34;1.75;;;0.88;;
74849;SDS011;63397;47.480;19.238;2023-02-28T02:09:37;3.47;;;1.23;;
74849;SDS011;63397;47.480;19.238;2023-02-28T02:16:06;2.27;;;0.90;;
74849;SDS011;63397;47.480;19.238;2023-02-28T02:47:51;0.87;;;0.67;;
74849;SDS011;63397;47.480;19.238;2023-02-28T02:51:01;2.97;;;1.25;;
74849;SDS011;63397;47.480;19.238;2023-02-28T02:54:13;1.67;;;1.02;;
74849;SDS011;63397;47.480;19.238;2023-02-28T02:57:22;2.65;;;0.82;;
74849;SDS011;63397;47.480;19.238;2023-02-28T03:00:26;1.07;;;0.50;;
74849;SDS011;63397;47.480;19.238;2023-02-28T03:03:32;0.53;;;0.40;;
74849;SDS011;63397;47.480;19.238;2023-02-28T03:06:35;4.22;;;0.70;;
74849;SDS011;63397;47.480;19.238;2023-02-28T03:09:37;2.80;;;1.60;;
74849;SDS011;63397;47.480;19.238;2023-02-28T03:12:43;3.30;;;0.98;;
74849;SDS011;63397;47.480;19.238;2023-02-28T03:22:26;2.65;;;1.17;;
74849;SDS011;63397;47.480;19.238;2023-02-28T03:29:06;1.67;;;0.73;;
74849;SDS011;63397;47.480;19.238;2023-02-28T03:35:24;1.33;;;0.90;;
74849;SDS011;63397;47.480;19.238;2023-02-28T03:38:29;5.43;;;2.05;;
74849;SDS011;63397;47.480;19.238;2023-02-28T03:41:36;0.65;;;0.40;;
74849;SDS011;63397;47.480;19.238;2023-02-28T03:44:42;1.55;;;0.70;;
74849;SDS011;63397;47.480;19.238;2023-02-28T03:50:51;2.13;;;0.87;;
74849;SDS011;63397;47.480;19.238;2023-02-28T03:54:06;1.52;;;0.52;;
74849;SDS011;63397;47.480;19.238;2023-02-28T04:00:14;1.17;;;0.70;;
74849;SDS011;63397;47.480;19.238;2023-02-28T04:03:19;2.50;;;0.63;;
74849;SDS011;63397;47.480;19.238;2023-02-28T04:06:22;1.47;;;1.13;;
74849;SDS011;63397;47.480;19.238;2023-02-28T04:09:24;1.42;;;0.60;;
74849;SDS011;63397;47.480;19.238;2023-02-28T04:12:26;2.20;;;0.98;;
74849;SDS011;63397;47.480;19.238;2023-02-28T04:15:29;2.08;;;0.90;;
74849;SDS011;63397;47.480;19.238;2023-02-28T04:18:31;1.40;;;0.73;;
74849;SDS011;63397;47.480;19.238;2023-02-28T04:21:37;2.03;;;0.97;;
74849;SDS011;63397;47.480;19.238;2023-02-28T04:24:41;4.30;;;1.00;;
74849;SDS011;63397;47.480;19.238;2023-02-28T04:27:43;1.92;;;0.82;;
74849;SDS011;63397;47.480;19.238;2023-02-28T04:30:46;1.38;;;0.65;;
74849;SDS011;63397;47.480;19.238;2023-02-28T04:33:48;0.50;;;0.27;;
74849;SDS011;63397;47.480;19.238;2023-02-28T04:36:51;1.33;;;0.50;;
74849;SDS011;63397;47.480;19.238;2023-02-28T04:40:13;0.35;;;0.28;;
74849;SDS011;63397;47.480;19.238;2023-02-28T04:43:15;0.65;;;0.38;;
74849;SDS011;63397;47.480;19.238;2023-02-28T04:46:17;1.75;;;1.02;;
74849;SDS011;63397;47.480;19.238;2023-02-28T04:49:20;0.87;;;0.40;;
74849;SDS011;63397;47.480;19.238;2023-02-28T04:52:22;0.50;;;0.43;;
74849;SDS011;63397;47.480;19.238;2023-02-28T04:55:24;1.48;;;0.47;;
74849;SDS011;63397;47.480;19.238;2023-02-28T04:58:26;0.77;;;0.45;;
74849;SDS011;63397;47.480;19.238;2023-02-28T05:01:30;1.50;;;0.60;;
74849;SDS011;63397;47.480;19.238;2023-02-28T05:04:34;0.30;;;0.10;;
74849;SDS011;63397;47.480;19.238;2023-02-28T05:07:36;2.00;;;0.63;;
74849;SDS011;63397;47.480;19.238;2023-02-28T05:10:38;0.20;;;0.10;;
74849;SDS011;63397;47.480;19.238;2023-02-28T05:13:41;1.33;;;0.47;;
74849;SDS011;63397;47.480;19.238;2023-02-28T05:16:43;1.38;;;0.70;;
74849;SDS011;63397;47.480;19.238;2023-02-28T05:19:45;0.57;;;0.40;;
74849;SDS011;63397;47.480;19.238;2023-02-28T05:22:49;2.77;;;1.17;;
74849;SDS011;63397;47.480;19.238;2023-02-28T05:25:51;2.63;;;1.33;;
74849;SDS011;63397;47.480;19.238;2023-02-28T05:28:54;1.75;;;0.40;;
74849;SDS011;63397;47.480;19.238;2023-02-28T05:31:56;1.95;;;0.60;;
74849;SDS011;63397;47.480;19.238;2023-02-28T05:34:59;1.63;;;0.80;;
74849;SDS011;63397;47.480;19.238;2023-02-28T05:38:01;2.33;;;1.00;;
74849;SDS011;63397;47.480;19.238;2023-02-28T05:41:10;2.30;;;1.15;;
74849;SDS011;63397;47.480;19.238;2023-02-28T05:44:12;2.60;;;1.20;;
74849;SDS011;63397;47.480;19.238;2023-02-28T05:47:14;1.80;;;0.90;;
74849;SDS011;63397;47.480;19.238;2023-02-28T05:50:17;1.10;;;0.60;;
74849;SDS011;63397;47.480;19.238;2023-02-28T05:53:20;1.40;;;0.73;;
74849;SDS011;63397;47.480;19.238;2023-02-28T05:56:22;1.55;;;0.52;;
74849;SDS011;63397;47.480;19.238;2023-02-28T05:59:24;1.73;;;0.57;;
74849;SDS011;63397;47.480;19.238;2023-02-28T06:02:26;1.45;;;0.90;;
74849;SDS011;63397;47.480;19.238;2023-02-28T06:05:30;2.27;;;0.80;;
74849;SDS011;63397;47.480;19.238;2023-02-28T06:08:32;2.73;;;0.53;;
74849;SDS011;63397;47.480;19.238;2023-02-28T06:11:34;3.30;;;1.10;;
74849;SDS011;63397;47.480;19.238;2023-02-28T06:14:36;1.50;;;0.88;;
74849;SDS011;63397;47.480;19.238;2023-02-28T06:17:39;1.45;;;0.75;;
74849;SDS011;63397;47.480;19.238;2023-02-28T06:20:42;2.97;;;1.20;;
74849;SDS011;63397;47.480;19.238;2023-02-28T06:23:44;3.57;;;1.00;;
74849;SDS011;63397;47.480;19.238;2023-02-28T06:26:46;3.28;;;1.70;;
74849;SDS011;63397;47.480;19.238;2023-02-28T06:29:53;3.67;;;1.48;;
74849;SDS011;63397;47.480;19.238;2023-02-28T06:32:55;1.98;;;0.95;;
74849;SDS011;63397;47.480;19.238;2023-02-28T06:35:57;4.47;;;1.17;;
74849;SDS011;63397;47.480;19.238;2023-02-28T06:39:00;2.13;;;1.10;;
74849;SDS011;63397;47.480;19.238;2023-02-28T06:42:02;3.38;;;1.05;;
74849;SDS011;63397;47.480;19.238;2023-02-28T06:45:04;0.70;;;0.32;;
74849;SDS011;63397;47.480;19.238;2023-02-28T06:48:11;1.52;;;0.68;;
74849;SDS011;63397;47.480;19.238;2023-02-28T06:51:19;0.63;;;0.55;;
74849;SDS011;63397;47.480;19.238;2023-02-28T06:54:43;1.27;;;0.43;;
74849;SDS011;63397;47.480;19.238;2023-02-28T06:57:45;1.70;;;0.60;;
74849;SDS011;63397;47.480;19.238;2023-02-28T07:00:52;4.10;;;1.00;;
74849;SDS011;63397;47.480;19.238;2023-02-28T07:03:54;1.83;;;1.17;;
74849;SDS011;63397;47.480;19.238;2023-02-28T07:06:58;1.97;;;0.77;;
74849;SDS011;63397;47.480;19.238;2023-02-28T07:10:01;11.27;;;1.53;;
74849;SDS011;63397;47.480;19.238;2023-02-28T07:13:05;2.53;;;1.33;;
74849;SDS011;63397;47.480;19.238;2023-02-28T07:16:09;3.15;;;1.38;;
74849;SDS011;63397;47.480;19.238;2023-02-28T07:19:13;1.27;;;0.80;;
74849;SDS011;63397;47.480;19.238;2023-02-28T07:22:15;2.35;;;1.00;;
74849;SDS011;63397;47.480;19.238;2023-02-28T07:25:17;2.33;;;0.80;;
74849;SDS011;63397;47.480;19.238;2023-02-28T07:28:19;2.75;;;1.02;;
74849;SDS011;63397;47.480;19.238;2023-02-28T07:31:21;7.78;;;0.85;;
74849;SDS011;63397;47.480;19.238;2023-02-28T07:34:24;3.58;;;1.55;;
74849;SDS011;63397;47.480;19.238;2023-02-28T07:37:27;2.80;;;1.58;;
74849;SDS011;63397;47.480;19.238;2023-02-28T07:40:33;6.00;;;2.33;;
74849;SDS011;63397;47.480;19.238;2023-02-28T07:43:36;2.63;;;1.10;;
74849;SDS011;63397;47.480;19.238;2023-02-28T07:46:38;3.80;;;1.33;;
74849;SDS011;63397;47.480;19.238;2023-02-28T07:49:40;3.70;;;1.13;;
74849;SDS011;63397;47.480;19.238;2023-02-28T07:52:43;3.65;;;1.70;;
74849;SDS011;63397;47.480;19.238;2023-02-28T07:55:46;6.73;;;1.03;;
74849;SDS011;63397;47.480;19.238;2023-02-28T07:58:49;3.33;;;1.20;;
74849;SDS011;63397;47.480;19.238;2023-02-28T08:01:52;2.45;;;1.10;;
74849;SDS011;63397;47.480;19.238;2023-02-28T08:04:55;2.83;;;1.17;;
74849;SDS011;63397;47.480;19.238;2023-02-28T08:07:58;2.55;;;1.05;;
74849;SDS011;63397;47.480;19.238;2023-02-28T08:11:04;1.37;;;0.80;;
74849;SDS011;63397;47.480;19.238;2023-02-28T08:14:06;2.75;;;1.00;;
74849;SDS011;63397;47.480;19.238;2023-02-28T08:17:09;4.20;;;0.93;;
74849;SDS011;63397;47.480;19.238;2023-02-28T08:20:11;1.65;;;0.70;;
74849;SDS011;63397;47.480;19.238;2023-02-28T08:23:14;2.05;;;0.90;;
74849;SDS011;63397;47.480;19.238;2023-02-28T08:26:17;2.77;;;1.20;;
74849;SDS011;63397;47.480;19.238;2023-02-28T08:29:19;2.25;;;0.85;;
74849;SDS011;63397;47.480;19.238;2023-02-28T08:32:22;1.20;;;0.17;;
74849;SDS011;63397;47.480;19.238;2023-02-28T08:35:31;2.58;;;0.82;;
74849;SDS011;63397;47.480;19.238;2023-02-28T08:38:33;2.33;;;1.20;;
74849;SDS011;63397;47.480;19.238;2023-02-28T08:41:36;2.27;;;0.73;;
74849;SDS011;63397;47.480;19.238;2023-02-28T08:44:38;2.10;;;1.08;;
74849;SDS011;63397;47.480;19.238;2023-02-28T08:47:43;3.38;;;1.05;;
74849;SDS011;63397;47.480;19.238;2023-02-28T08:50:58;2.33;;;0.77;;
74849;SDS011;63397;47.480;19.238;2023-02-28T08:54:10;2.60;;;0.70;;
74849;SDS011;63397;47.480;19.238;2023-02-28T08:57:17;2.00;;;0.77;;
74849;SDS011;63397;47.480;19.238;2023-02-28T09:00:21;2.08;;;0.80;;
74849;SDS011;63397;47.480;19.238;2023-02-28T09:03:23;1.20;;;0.47;;
74849;SDS011;63397;47.480;19.238;2023-02-28T09:06:27;0.70;;;0.38;;
74849;SDS011;63397;47.480;19.238;2023-02-28T09:09:30;1.95;;;0.95;;
74849;SDS011;63397;47.480;19.238;2023-02-28T09:12:45;1.30;;;0.53;;
74849;SDS011;63397;47.480;19.238;2023-02-28T09:15:57;0.63;;;0.30;;
74849;SDS011;63397;47.480;19.238;2023-02-28T09:19:05;1.77;;;0.80;;
74849;SDS011;63397;47.480;19.238;2023-02-28T09:22:10;0.88;;;0.40;;
74849;SDS011;63397;47.480;19.238;2023-02-28T09:25:17;1.23;;;0.68;;
74849;SDS011;63397;47.480;19.238;2023-02-28T09:28:20;1.70;;;0.70;;
74849;SDS011;63397;47.480;19.238;2023-02-28T09:31:24;3.20;;;0.70;;
74849;SDS011;63397;47.480;19.238;2023-02-28T09:34:27;3.05;;;0.85;;
74849;SDS011;63397;47.480;19.238;2023-02-28T09:37:30;3.05;;;1.00;;
74849;SDS011;63397;47.480;19.238;2023-02-28T09:40:35;1.90;;;0.57;;
74849;SDS011;63397;47.480;19.238;2023-02-28T09:43:40;1.63;;;0.80;;
74849;SDS011;63397;47.480;19.238;2023-02-28T09:46:45;2.08;;;0.65;;
74849;SDS011;63397;47.480;19.238;2023-02-28T09:49:48;3.53;;;0.95;;
74849;SDS011;63397;47.480;19.238;2023-02-28T09:52:51;1.05;;;0.63;;
74849;SDS011;63397;47.480;19.238;2023-02-28T09:55:55;2.17;;;0.60;;
74849;SDS011;63397;47.480;19.238;2023-02-28T09:59:10;1.90;;;0.70;;
74849;SDS011;63397;47.480;19.238;2023-02-28T10:05:38;1.67;;;0.85;;
74849;SDS011;63397;47.480;19.238;2023-02-28T10:09:04;4.78;;;1.60;;
74849;SDS011;63397;47.480;19.238;2023-02-28T10:12:18;3.15;;;1.17;;
74849;SDS011;63397;47.480;19.238;2023-02-28T10:15:29;1.47;;;0.40;;
74849;SDS011;63397;47.480;19.238;2023-02-28T10:25:11;1.90;;;0.77;;
74849;SDS011;63397;47.480;19.238;2023-02-28T10:28:20;1.85;;;0.65;;
74849;SDS011;63397;47.480;19.238;2023-02-28T10:31:23;1.37;;;0.60;;
74849;SDS011;63397;47.480;19.238;2023-02-28T10:34:27;1.33;;;0.57;;
74849;SDS011;63397;47.480;19.238;2023-02-28T10:37:29;0.68;;;0.43;;
74849;SDS011;63397;47.480;19.238;2023-02-28T10:40:36;4.40;;;1.10;;
74849;SDS011;63397;47.480;19.238;2023-02-28T10:43:39;6.72;;;0.73;;
74849;SDS011;63397;47.480;19.238;2023-02-28T10:46:42;2.30;;;1.07;;
74849;SDS011;63397;47.480;19.238;2023-02-28T10:49:50;3.53;;;1.15;;
74849;SDS011;63397;47.480;19.238;2023-02-28T10:52:54;4.30;;;1.23;;
74849;SDS011;63397;47.480;19.238;2023-02-28T10:59:08;2.25;;;0.98;;
74849;SDS011;63397;47.480;19.238;2023-02-28T11:02:32;2.17;;;0.60;;
74849;SDS011;63397;47.480;19.238;2023-02-28T11:05:46;1.67;;;0.80;;
74849;SDS011;63397;47.480;19.238;2023-02-28T11:11:51;0.95;;;0.50;;
74849;SDS011;63397;47.480;19.238;2023-02-28T11:14:56;3.00;;;1.10;;
74849;SDS011;63397;47.480;19.238;2023-02-28T11:18:18;1.93;;;0.63;;
74849;SDS011;63397;47.480;19.238;2023-02-28T11:21:25;2.53;;;0.90;;
74849;SDS011;63397;47.480;19.238;2023-02-28T11:24:36;1.58;;;0.75;;
74849;SDS011;63397;47.480;19.238;2023-02-28T11:27:42;2.30;;;0.68;;
74849;SDS011;63397;47.480;19.238;2023-02-28T11:30:46;2.38;;;1.25;;
74849;SDS011;63397;47.480;19.238;2023-02-28T11:34:01;2.50;;;0.90;;
74849;SDS011;63397;47.480;19.238;2023-02-28T11:37:03;0.32;;;0.10;;
74849;SDS011;63397;47.480;19.238;2023-02-28T11:40:18;2.42;;;0.63;;
74849;SDS011;63397;47.480;19.238;2023-02-28T11:46:30;2.00;;;1.10;;
74849;SDS011;63397;47.480;19.238;2023-02-28T11:55:45;3.47;;;1.10;;
74849;SDS011;63397;47.480;19.238;2023-02-28T12:02:20;3.65;;;1.60;;
74849;SDS011;63397;47.480;19.238;2023-02-28T12:27:30;0.98;;;0.50;;
74849;SDS011;63397;47.480;19.238;2023-02-28T12:30:34;5.10;;;1.27;;
74849;SDS011;63397;47.480;19.238;2023-02-28T12:33:42;4.18;;;1.02;;
74849;SDS011;63397;47.480;19.238;2023-02-28T12:36:45;1.77;;;0.90;;
74849;SDS011;63397;47.480;19.238;2023-02-28T12:39:52;3.35;;;1.02;;
74849;SDS011;63397;47.480;19.238;2023-02-28T12:42:58;5.28;;;1.73;;
74849;SDS011;63397;47.480;19.238;2023-02-28T12:49:12;3.83;;;1.08;;
74849;SDS011;63397;47.480;19.238;2023-02-28T12:52:17;3.90;;;0.97;;
74849;SDS011;63397;47.480;19.238;2023-02-28T12:55:23;4.05;;;1.83;;
74849;SDS011;63397;47.480;19.238;2023-02-28T12:58:37;2.58;;;1.05;;
74849;SDS011;63397;47.480;19.238;2023-02-28T13:01:48;1.27;;;0.80;;
74849;SDS011;63397;47.480;19.238;2023-02-28T13:11:52;3.28;;;1.40;;
74849;SDS011;63397;47.480;19.238;2023-02-28T13:14:47;2.58;;;0.60;;
74849;SDS011;63397;47.480;19.238;2023-02-28T13:17:52;3.75;;;1.70;;
74849;SDS011;63397;47.480;19.238;2023-02-28T13:20:55;1.92;;;0.95;;
74849;SDS011;63397;47.480;19.238;2023-02-28T13:23:59;3.83;;;1.40;;
74849;SDS011;63397;47.480;19.238;2023-02-28T13:33:35;5.25;;;1.83;;
74849;SDS011;63397;47.480;19.238;2023-02-28T13:36:40;4.75;;;1.63;;
74849;SDS011;63397;47.480;19.238;2023-02-28T13:42:47;3.80;;;1.33;;
74849;SDS011;63397;47.480;19.238;2023-02-28T13:46:08;4.40;;;1.38;;
74849;SDS011;63397;47.480;19.238;2023-02-28T13:52:41;4.13;;;1.77;;
74849;SDS011;63397;47.480;19.238;2023-02-28T14:02:01;3.15;;;0.70;;
74849;SDS011;63397;47.480;19.238;2023-02-28T14:05:15;2.08;;;0.77;;
74849;SDS011;63397;47.480;19.238;2023-02-28T14:08:21;2.75;;;1.23;;
74849;SDS011;63397;47.480;19.238;2023-02-28T14:11:35;3.13;;;1.73;;
74849;SDS011;63397;47.480;19.238;2023-02-28T14:17:40;1.33;;;0.88;;
74849;SDS011;63397;47.480;19.238;2023-02-28T14:20:43;3.33;;;1.40;;
74849;SDS011;63397;47.480;19.238;2023-02-28T14:36:46;2.75;;;1.00;;
74849;SDS011;63397;47.480;19.238;2023-02-28T14:39:49;4.05;;;1.63;;
74849;SDS011;63397;47.480;19.238;2023-02-28T14:42:58;2.70;;;1.07;;
74849;SDS011;63397;47.480;19.238;2023-02-28T14:46:04;3.65;;;1.48;;
74849;SDS011;63397;47.480;19.238;2023-02-28T14:49:13;4.20;;;1.40;;
74849;SDS011;63397;47.480;19.238;2023-02-28T14:52:19;4.28;;;1.30;;
74849;SDS011;63397;47.480;19.238;2023-02-28T14:55:24;1.92;;;0.55;;
74849;SDS011;63397;47.480;19.238;2023-02-28T14:58:31;3.20;;;1.27;;
74849;SDS011;63397;47.480;19.238;2023-02-28T15:01:34;3.35;;;1.52;;
74849;SDS011;63397;47.480;19.238;2023-02-28T15:04:36;3.97;;;1.63;;
74849;SDS011;63397;47.480;19.238;2023-02-28T15:07:39;6.72;;;1.60;;
74849;SDS011;63397;47.480;19.238;2023-02-28T15:10:45;6.22;;;2.50;;
74849;SDS011;63397;47.480;19.238;2023-02-28T15:13:48;4.63;;;1.73;;
74849;SDS011;63397;47.480;19.238;2023-02-28T15:16:52;4.32;;;1.35;;
74849;SDS011;63397;47.480;19.238;2023-02-28T15:19:58;2.42;;;1.10;;
74849;SDS011;63397;47.480;19.238;2023-02-28T15:23:00;2.90;;;0.82;;
74849;SDS011;63397;47.480;19.238;2023-02-28T15:26:03;2.72;;;1.20;;
74849;SDS011;63397;47.480;19.238;2023-02-28T15:29:07;5.87;;;2.53;;
74849;SDS011;63397;47.480;19.238;2023-02-28T15:32:19;2.88;;;1.35;;
74849;SDS011;63397;47.480;19.238;2023-02-28T15:38:29;2.58;;;1.13;;
74849;SDS011;63397;47.480;19.238;2023-02-28T15:41:35;2.00;;;1.13;;
74849;SDS011;63397;47.480;19.238;2023-02-28T15:44:39;3.07;;;1.03;;
74849;SDS011;63397;47.480;19.238;2023-02-28T15:47:44;2.13;;;0.70;;
74849;SDS011;63397;47.480;19.238;2023-02-28T15:50:49;3.40;;;0.82;;
74849;SDS011;63397;47.480;19.238;2023-02-28T15:57:06;3.13;;;0.98;;
74849;SDS011;63397;47.480;19.238;2023-02-28T16:00:13;5.73;;;1.90;;
74849;SDS011;63397;47.480;19.238;2023-02-28T16:03:25;2.78;;;0.95;;
74849;SDS011;63397;47.480;19.238;2023-02-28T16:09:39;3.25;;;0.90;;
74849;SDS011;63397;47.480;19.238;2023-02-28T16:12:44;3.67;;;1.45;;
74849;SDS011;63397;47.480;19.238;2023-02-28T16:15:46;5.37;;;1.40;;
74849;SDS011;63397;47.480;19.238;2023-02-28T16:18:51;5.47;;;1.90;;
74849;SDS011;63397;47.480;19.238;2023-02-28T16:21:53;5.57;;;1.35;;
74849;SDS011;63397;47.480;19.238;2023-02-28T16:24:56;5.03;;;1.48;;
74849;SDS011;63397;47.480;19.238;2023-02-28T16:27:58;3.65;;;1.17;;
74849;SDS011;63397;47.480;19.238;2023-02-28T16:31:02;1.30;;;0.67;;
74849;SDS011;63397;47.480;19.238;2023-02-28T16:34:06;2.63;;;1.35;;
74849;SDS011;63397;47.480;19.238;2023-02-28T16:37:15;2.85;;;1.25;;
74849;SDS011;63397;47.480;19.238;2023-02-28T16:40:27;3.25;;;1.38;;
74849;SDS011;63397;47.480;19.238;2023-02-28T16:43:32;2.92;;;1.45;;
74849;SDS011;63397;47.480;19.238;2023-02-28T16:46:35;2.90;;;1.07;;
74849;SDS011;63397;47.480;19.238;2023-02-28T16:49:38;2.65;;;0.85;;
74849;SDS011;63397;47.480;19.238;2023-02-28T16:52:42;1.83;;;0.77;;
74849;SDS011;63397;47.480;19.238;2023-02-28T16:55:44;3.75;;;1.73;;
74849;SDS011;63397;47.480;19.238;2023-02-28T16:58:47;2.83;;;1.13;;
74849;SDS011;63397;47.480;19.238;2023-02-28T17:01:50;1.77;;;1.03;;
74849;SDS011;63397;47.480;19.238;2023-02-28T17:04:52;2.60;;;1.27;;
74849;SDS011;63397;47.480;19.238;2023-02-28T17:07:54;4.03;;;1.38;;
74849;SDS011;63397;47.480;19.238;2023-02-28T17:10:57;6.70;;;1.90;;
74849;SDS011;63397;47.480;19.238;2023-02-28T17:13:59;3.78;;;2.15;;
74849;SDS011;63397;47.480;19.238;2023-02-28T17:17:02;5.20;;;1.80;;
74849;SDS011;63397;47.480;19.238;2023-02-28T17:20:06;4.32;;;1.40;;
74849;SDS011;63397;47.480;19.238;2023-02-28T17:23:08;3.05;;;0.98;;
74849;SDS011;63397;47.480;19.238;2023-02-28T17:26:14;5.88;;;1.23;;
74849;SDS011;63397;47.480;19.238;2023-02-28T17:29:19;1.35;;;0.77;;
74849;SDS011;63397;47.480;19.238;2023-02-28T17:32:22;2.07;;;0.80;;
74849;SDS011;63397;47.480;19.238;2023-02-28T17:35:24;2.17;;;1.00;;
74849;SDS011;63397;47.480;19.238;2023-02-28T17:38:28;1.85;;;1.27;;
74849;SDS011;63397;47.480;19.238;2023-02-28T17:41:31;3.78;;;1.30;;
74849;SDS011;63397;47.480;19.238;2023-02-28T17:44:33;4.10;;;1.38;;
74849;SDS011;63397;47.480;19.238;2023-02-28T17:47:35;3.07;;;1.20;;
74849;SDS011;63397;47.480;19.238;2023-02-28T17:50:38;2.28;;;0.95;;
74849;SDS011;63397;47.480;19.238;2023-02-28T17:53:40;5.32;;;1.67;;
74849;SDS011;63397;47.480;19.238;2023-02-28T17:56:43;6.60;;;2.05;;
74849;SDS011;63397;47.480;19.238;2023-02-28T17:59:45;3.05;;;1.58;;
74849;SDS011;63397;47.480;19.238;2023-02-28T18:02:48;4.17;;;2.10;;
74849;SDS011;63397;47.480;19.238;2023-02-28T18:05:50;8.88;;;2.83;;
74849;SDS011;63397;47.480;19.238;2023-02-28T18:08:53;2.45;;;1.10;;
74849;SDS011;63397;47.480;19.238;2023-02-28T18:11:55;2.03;;;1.38;;
74849;SDS011;63397;47.480;19.238;2023-02-28T18:14:58;3.38;;;1.38;;
74849;SDS011;63397;47.480;19.238;2023-02-28T18:18:00;2.70;;;1.07;;
74849;SDS011;63397;47.480;19.238;2023-02-28T18:21:04;1.75;;;1.10;;
74849;SDS011;63397;47.480;19.238;2023-02-28T18:24:07;5.03;;;1.38;;
74849;SDS011;63397;47.480;19.238;2023-02-28T18:27:10;3.95;;;1.80;;
74849;SDS011;63397;47.480;19.238;2023-02-28T18:30:13;4.43;;;2.03;;
74849;SDS011;63397;47.480;19.238;2023-02-28T18:33:15;5.10;;;1.77;;
74849;SDS011;63397;47.480;19.238;2023-02-28T18:36:18;3.42;;;1.42;;
74849;SDS011;63397;47.480;19.238;2023-02-28T18:39:22;3.70;;;1.58;;
74849;SDS011;63397;47.480;19.238;2023-02-28T18:42:24;4.45;;;2.42;;
74849;SDS011;63397;47.480;19.238;2023-02-28T18:45:26;7.10;;;2.28;;
74849;SDS011;63397;47.480;19.238;2023-02-28T18:48:29;3.90;;;1.93;;
74849;SDS011;63397;47.480;19.238;2023-02-28T18:51:31;4.78;;;3.03;;
74849;SDS011;63397;47.480;19.238;2023-02-28T18:54:34;5.95;;;2.53;;
74849;SDS011;63397;47.480;19.238;2023-02-28T18:57:37;4.80;;;2.38;;
74849;SDS011;63397;47.480;19.238;2023-02-28T19:00:39;4.00;;;1.83;;
74849;SDS011;63397;47.480;19.238;2023-02-28T19:03:42;3.67;;;1.63;;
74849;SDS011;63397;47.480;19.238;2023-02-28T19:06:44;4.53;;;2.63;;
74849;SDS011;63397;47.480;19.238;2023-02-28T19:09:47;6.03;;;2.20;;
74849;SDS011;63397;47.480;19.238;2023-02-28T19:12:49;3.85;;;1.60;;
74849;SDS011;63397;47.480;19.238;2023-02-28T19:15:59;7.53;;;2.55;;
74849;SDS011;63397;47.480;19.238;2023-02-28T19:19:01;4.70;;;2.93;;
74849;SDS011;63397;47.480;19.238;2023-02-28T19:22:04;6.28;;;2.72;;
74849;SDS011;63397;47.480;19.238;2023-02-28T19:25:07;7.47;;;2.45;;
74849;SDS011;63397;47.480;19.238;2023-02-28T19:28:09;4.75;;;2.20;;
74849;SDS011;63397;47.480;19.238;2023-02-28T19:31:13;5.10;;;2.28;;
74849;SDS011;63397;47.480;19.238;2023-02-28T19:34:16;10.63;;;2.30;;
74849;SDS011;63397;47.480;19.238;2023-02-28T19:37:18;6.53;;;2.50;;
74849;SDS011;63397;47.480;19.238;2023-02-28T19:40:21;7.13;;;2.53;;
74849;SDS011;63397;47.480;19.238;2023-02-28T19:43:23;3.53;;;1.67;;
74849;SDS011;63397;47.480;19.238;2023-02-28T19:46:27;2.45;;;1.30;;
74849;SDS011;63397;47.480;19.238;2023-02-28T19:49:30;3.70;;;1.77;;
74849;SDS011;63397;47.480;19.238;2023-02-28T19:52:33;5.53;;;2.28;;
74849;SDS011;63397;47.480;19.238;2023-02-28T19:55:36;4.15;;;1.73;;
74849;SDS011;63397;47.480;19.238;2023-02-28T19:58:39;4.40;;;1.30;;
74849;SDS011;63397;47.480;19.238;2023-02-28T20:01:41;2.65;;;1.60;;
74849;SDS011;63397;47.480;19.238;2023-02-28T20:04:47;5.63;;;1.37;;
74849;SDS011;63397;47.480;19.238;2023-02-28T20:07:50;9.20;;;2.95;;
74849;SDS011;63397;47.480;19.238;2023-02-28T20:10:52;5.22;;;1.60;;
74849;SDS011;63397;47.480;19.238;2023-02-28T20:13:57;4.90;;;2.10;;
74849;SDS011;63397;47.480;19.238;2023-02-28T20:17:00;4.22;;;1.55;;
74849;SDS011;63397;47.480;19.238;2023-02-28T20:20:02;4.63;;;2.13;;
74849;SDS011;63397;47.480;19.238;2023-02-28T20:23:05;6.32;;;2.33;;
74849;SDS011;63397;47.480;19.238;2023-02-28T20:26:07;4.05;;;2.15;;
74849;SDS011;63397;47.480;19.238;2023-02-28T20:29:11;3.05;;;1.88;;
74849;SDS011;63397;47.480;19.238;2023-02-28T20:32:13;12.95;;;2.42;;
74849;SDS011;63397;47.480;19.238;2023-02-28T20:35:15;5.90;;;2.00;;
74849;SDS011;63397;47.480;19.238;2023-02-28T20:38:18;8.00;;;2.60;;
74849;SDS011;63397;47.480;19.238;2023-02-28T20:41:21;3.90;;;2.40;;
74849;SDS011;63397;47.480;19.238;2023-02-28T20:44:23;6.82;;;3.47;;
74849;SDS011;63397;47.480;19.238;2023-02-28T20:47:26;5.68;;;2.10;;
74849;SDS011;63397;47.480;19.238;2023-02-28T20:50:28;4.90;;;2.37;;
74849;SDS011;63397;47.480;19.238;2023-02-28T20:53:31;3.97;;;2.10;;